Time;durP1;ratioP1;P1;durP2;ratioP2;P2;SDS_P1;SDS_P2;PMS_P1;PMS_P2;Temp;Humidity;BMP_temperature;BMP_pressure;BME280_temperature;BME280_humidity;BME280_pressure;Samples;Min_cycle;Max_cycle;Signal;HPM_P1;HPM_P2
2022/05/04 00:00:21;;;;;;;4.00;3.70;;;;;;;7.66;88.11;94969.53;5089236;28;20451;-81
2022/05/04 00:02:48;;;;;;;4.13;3.73;;;;;;;7.73;87.87;94976.81;5089048;28;20990;-80
2022/05/04 00:05:16;;;;;;;4.13;3.73;;;;;;;7.81;87.28;94968.44;5089009;28;20424;-80
2022/05/04 00:07:44;;;;;;;3.57;3.27;;;;;;;7.88;87.14;94972.28;5070027;28;20448;-80
2022/05/04 00:10:13;;;;;;;4.37;3.90;;;;;;;7.93;86.88;94972.75;5088694;28;20938;-81
2022/05/04 00:12:40;;;;;;;5.60;4.47;;;;;;;7.86;86.09;94962.88;5049396;28;20889;-81
2022/05/04 00:15:08;;;;;;;3.80;3.50;;;;;;;8.05;86.40;94968.41;5075169;28;20444;-82
2022/05/04 00:17:35;;;;;;;11.50;3.87;;;;;;;8.07;85.60;94964.72;5075410;28;20448;-80
2022/05/04 00:20:01;;;;;;;6.90;3.50;;;;;;;8.08;85.60;94960.34;5075172;28;20954;-79
2022/05/04 00:22:30;;;;;;;3.80;3.50;;;;;;;8.04;85.21;94954.50;5039806;28;20872;-80
2022/05/04 00:24:57;;;;;;;3.70;3.20;;;;;;;8.00;86.04;94957.47;5074993;28;20433;-80
2022/05/04 00:27:24;;;;;;;4.80;4.43;;;;;;;7.93;86.02;94957.09;5074998;28;20445;-80
2022/05/04 00:29:51;;;;;;;3.67;3.47;;;;;;;7.86;85.91;94962.88;5075048;28;20457;-80
2022/05/04 00:32:18;;;;;;;3.87;3.57;;;;;;;7.81;85.89;94963.22;5075072;28;20971;-80
2022/05/04 00:34:45;;;;;;;8.00;4.00;;;;;;;7.74;86.53;94968.03;5074977;28;20444;-81
2022/05/04 00:37:12;;;;;;;3.90;3.60;;;;;;;7.67;86.54;94952.94;5056130;28;20463;-81
2022/05/04 00:39:41;;;;;;;3.70;3.40;;;;;;;7.71;86.96;94956.97;5039585;28;20939;-78
2022/05/04 00:42:10;;;;;;;3.83;3.43;;;;;;;7.70;87.11;94966.59;5074603;28;20857;-81
2022/05/04 00:44:37;;;;;;;5.30;4.63;;;;;;;7.72;87.78;94963.88;5074975;28;20437;-81
2022/05/04 00:47:04;;;;;;;5.27;4.77;;;;;;;7.72;88.00;94967.31;5074506;28;20449;-81
2022/05/04 00:49:31;;;;;;;5.17;4.67;;;;;;;7.76;87.87;94965.31;5075244;28;20444;-81
2022/05/04 00:51:58;;;;;;;5.93;4.87;;;;;;;7.77;87.94;94970.41;5074421;28;20452;-81
2022/05/04 00:54:26;;;;;;;4.97;4.57;;;;;;;7.75;87.52;94968.88;5074822;28;20457;-80
2022/05/04 00:56:55;;;;;;;6.13;5.37;;;;;;;7.76;87.75;94970.53;5074739;28;20437;-81
2022/05/04 00:59:22;;;;;;;8.13;6.50;;;;;;;7.79;87.75;94983.38;5039369;28;20436;-81
2022/05/04 01:01:49;;;;;;;4.20;3.80;;;;;;;7.76;87.14;94986.19;5074599;28;20481;-81
2022/05/04 01:04:18;;;;;;;4.27;3.97;;;;;;;7.77;87.03;94993.94;5074306;28;20993;-80
2022/05/04 01:06:45;;;;;;;5.20;4.70;;;;;;;7.84;86.91;95002.19;5074221;28;20510;-81
2022/05/04 01:09:12;;;;;;;4.73;4.27;;;;;;;7.86;86.39;94992.44;5074444;28;20520;-80
2022/05/04 01:11:39;;;;;;;13.23;10.73;;;;;;;7.80;86.35;94997.25;5080462;28;20471;-81
2022/05/04 01:14:09;;;;;;;6.97;5.57;;;;;;;7.75;86.53;94995.81;5094575;28;20812;-80
2022/05/04 01:16:38;;;;;;;4.37;3.97;;;;;;;7.70;86.16;95004.94;5094572;28;20432;-79
2022/05/04 01:19:06;;;;;;;5.03;4.53;;;;;;;7.69;86.66;95008.50;5094191;28;20452;-82
2022/05/04 01:21:33;;;;;;;5.07;4.57;;;;;;;7.65;86.92;94996.59;5041759;28;20518;-80
2022/05/04 01:24:02;;;;;;;4.67;4.10;;;;;;;7.58;87.57;94998.00;5093814;28;20455;-81
2022/05/04 01:26:29;;;;;;;3.90;3.60;;;;;;;7.58;88.62;95000.59;5094108;28;20530;-80
2022/05/04 01:28:56;;;;;;;4.50;4.20;;;;;;;7.55;88.81;94991.22;5094267;28;20440;-82
2022/05/04 01:31:23;;;;;;;3.40;3.17;;;;;;;7.50;88.52;94992.47;5093961;28;20452;-80
2022/05/04 01:33:50;;;;;;;3.33;2.97;;;;;;;7.56;88.23;94994.66;5094002;28;20531;-81
2022/05/04 01:36:17;;;;;;;4.97;4.67;;;;;;;7.60;88.28;94990.88;5042214;28;20443;-81
2022/05/04 01:38:44;;;;;;;5.23;4.50;;;;;;;7.71;87.58;95004.00;5094007;28;20444;-81
2022/05/04 01:43:52;;;;;;;4.47;3.93;;;;;;;7.82;85.97;94990.19;5092949;28;20444;-80
2022/05/04 01:46:21;;;;;;;5.00;4.10;;;;;;;7.79;86.68;94991.19;5093491;28;20448;-79
2022/05/04 01:48:48;;;;;;;4.03;3.70;;;;;;;7.76;85.95;94992.25;5093932;28;20493;-81
2022/05/04 01:51:15;;;;;;;4.17;3.77;;;;;;;7.78;85.97;95000.81;5093770;28;20459;-80
2022/05/04 01:53:42;;;;;;;3.90;3.60;;;;;;;7.64;85.56;94982.72;5093748;28;20462;-81
2022/05/04 01:56:09;;;;;;;3.70;3.40;;;;;;;7.57;86.26;94991.09;5093847;28;20431;-80
2022/05/04 01:58:37;;;;;;;3.80;3.47;;;;;;;7.49;86.42;94982.97;5093413;28;20718;-80
2022/05/04 02:01:04;;;;;;;5.60;4.00;;;;;;;7.42;86.67;94982.56;5093452;28;20444;-78
2022/05/04 02:03:31;;;;;;;7.60;4.77;;;;;;;7.33;87.01;94991.88;5093239;28;20479;-81
2022/05/04 02:05:58;;;;;;;5.77;3.97;;;;;;;7.27;87.57;94987.09;5093354;28;20459;-80
2022/05/04 02:08:25;;;;;;;4.47;4.10;;;;;;;7.21;88.13;94984.91;5093533;28;20444;-81
2022/05/04 02:10:52;;;;;;;4.30;3.90;;;;;;;7.23;88.99;94984.78;5093374;28;20452;-81
2022/05/04 02:13:19;;;;;;;4.20;3.47;;;;;;;7.21;88.53;94984.06;5052992;28;20461;-80
2022/05/04 02:15:47;;;;;;;4.17;3.87;;;;;;;7.25;88.31;94981.16;5034633;28;20438;-81
2022/05/04 02:18:14;;;;;;;4.47;4.07;;;;;;;7.23;88.38;94990.00;5017923;28;20446;-79
2022/05/04 02:20:41;;;;;;;4.27;3.83;;;;;;;7.22;88.42;94983.97;5053001;28;20928;-79
2022/05/04 02:23:08;;;;;;;6.10;4.57;;;;;;;7.19;88.07;94984.19;5052715;28;20482;-80
2022/05/04 02:25:35;;;;;;;7.07;4.53;;;;;;;7.20;88.57;94987.63;5052712;28;20438;-80
2022/05/04 02:28:01;;;;;;;4.70;4.30;;;;;;;7.19;88.64;94976.34;5052897;28;20620;-80
2022/05/04 02:30:29;;;;;;;4.90;4.40;;;;;;;7.22;88.24;94983.13;5052832;28;20452;-80
2022/05/04 02:32:59;;;;;;;4.93;4.47;;;;;;;7.29;89.08;94980.00;5052902;28;20499;-80
2022/05/04 02:38:10;;;;;;;7.90;4.83;;;;;;;7.18;88.58;94977.28;5053483;28;20409;-80
2022/05/04 02:40:37;;;;;;;5.30;4.37;;;;;;;7.09;88.86;94978.78;5053675;28;20434;-80
2022/05/04 02:43:06;;;;;;;4.27;3.90;;;;;;;7.00;88.74;94991.63;5054197;28;20476;-80
2022/05/04 02:45:33;;;;;;;6.23;4.17;;;;;;;7.04;89.22;94993.09;5053275;28;20962;-80
2022/05/04 02:48:01;;;;;;;5.37;4.33;;;;;;;7.05;88.63;94992.16;5053802;28;20430;-82
2022/05/04 02:50:28;;;;;;;4.50;4.10;;;;;;;7.12;89.32;94988.16;5053325;28;20447;-82
2022/05/04 02:52:55;;;;;;;6.10;4.50;;;;;;;7.21;89.39;94990.13;5053537;28;20426;-80
2022/05/04 02:55:21;;;;;;;4.90;4.50;;;;;;;7.26;88.88;94992.44;5053730;28;20438;-82
2022/05/04 02:57:48;;;;;;;4.50;4.10;;;;;;;7.35;87.92;94995.22;5053457;28;20430;-80
2022/05/04 03:00:16;;;;;;;4.10;3.70;;;;;;;7.38;88.00;94996.78;5018964;28;20442;-80
2022/05/04 03:02:42;;;;;;;7.33;4.50;;;;;;;7.44;87.28;95004.16;5053378;28;20906;-78
2022/05/04 03:05:12;;;;;;;4.80;4.13;;;;;;;7.40;87.47;95019.22;5053497;28;20430;-80
2022/05/04 03:07:39;;;;;;;4.97;4.57;;;;;;;7.29;86.89;95023.53;5053372;28;20426;-79
2022/05/04 03:10:07;;;;;;;4.87;4.40;;;;;;;7.13;87.11;95024.59;5035108;28;20462;-79
2022/05/04 03:12:34;;;;;;;5.50;5.00;;;;;;;6.96;87.40;95037.13;5081786;28;20829;-82
2022/05/04 03:15:01;;;;;;;8.40;5.17;;;;;;;6.79;89.08;95027.84;5093994;28;20448;-80
2022/05/04 03:17:28;;;;;;;6.67;5.50;;;;;;;6.90;88.42;95040.97;5076399;28;20441;-81
2022/05/04 03:19:56;;;;;;;6.87;5.90;;;;;;;6.86;88.30;95039.53;5073325;28;20436;-79
2022/05/04 03:22:25;;;;;;;10.60;7.67;;;;;;;6.79;89.40;95043.50;5073701;28;20476;-78
2022/05/04 03:24:52;;;;;;;10.40;7.27;;;;;;;6.82;88.85;95036.28;5073389;28;20438;-79
2022/05/04 03:27:18;;;;;;;7.63;6.60;;;;;;;6.86;88.99;95030.84;5073132;28;20429;-79
2022/05/04 03:29:45;;;;;;;10.13;8.37;;;;;;;6.92;88.81;95036.50;5072957;28;20806;-80
2022/05/04 03:32:12;;;;;;;24.37;8.80;;;;;;;6.96;89.11;95034.53;5074136;28;20440;-79
2022/05/04 03:34:39;;;;;;;8.30;6.00;;;;;;;6.99;89.91;95037.75;5079174;28;20448;-79
2022/05/04 03:37:06;;;;;;;10.33;5.73;;;;;;;6.95;89.96;95035.47;5071408;28;20445;-80
2022/05/04 03:39:34;;;;;;;5.87;4.73;;;;;;;6.98;90.23;95041.31;5073765;28;20935;-80
2022/05/04 03:42:02;;;;;;;8.43;4.40;;;;;;;6.87;90.56;95032.53;5018870;28;20440;-79
2022/05/04 03:44:29;;;;;;;4.67;4.10;;;;;;;6.89;90.90;95043.69;5071596;28;20737;-79
2022/05/04 03:46:56;;;;;;;5.80;4.10;;;;;;;6.85;90.88;95030.03;5071888;28;20440;-81
2022/05/04 03:49:24;;;;;;;5.27;4.77;;;;;;;7.02;90.73;95034.09;5083717;28;20451;-79
2022/05/04 03:51:51;;;;;;;4.90;4.50;;;;;;;7.12;90.39;95037.75;5095514;28;20447;-79
2022/05/04 03:54:18;;;;;;;4.93;4.43;;;;;;;7.21;90.37;95037.09;5095261;28;20443;-79
2022/05/04 03:56:46;;;;;;;4.40;4.00;;;;;;;7.26;89.16;95034.19;5095537;28;20447;-79
2022/05/04 03:59:13;;;;;;;4.60;4.13;;;;;;;7.29;89.16;95034.81;5095696;28;20451;-79
2022/05/04 04:01:40;;;;;;;4.67;4.00;;;;;;;7.27;88.76;95041.91;5076417;28;20444;-79
2022/05/04 04:04:07;;;;;;;5.23;4.73;;;;;;;7.32;88.92;95050.25;5095753;28;21062;-79
2022/05/04 04:06:35;;;;;;;10.30;6.00;;;;;;;7.39;89.04;95048.88;5043297;28;20444;-79
2022/05/04 04:09:02;;;;;;;5.20;4.10;;;;;;;7.43;88.03;95063.38;5095417;28;20522;-78
2022/05/04 04:11:29;;;;;;;5.20;4.20;;;;;;;7.47;87.59;95085.72;5043207;28;20506;-80
2022/05/04 04:13:58;;;;;;;6.77;5.70;;;;;;;7.43;87.70;95084.28;5076210;28;20439;-81
2022/05/04 04:16:25;;;;;;;18.90;9.10;;;;;;;7.54;88.03;95080.09;5095790;28;20458;-80
2022/05/04 04:18:52;;;;;;;7.70;6.40;;;;;;;7.55;87.45;95066.94;5096065;28;20431;-79
2022/05/04 04:24:03;;;;;;;8.63;7.73;;;;;;;8.16;85.28;95080.03;5095728;28;20618;-79
2022/05/04 04:26:30;;;;;;;20.27;8.27;;;;;;;8.28;84.81;95087.78;5044378;28;20456;-79
2022/05/04 04:28:58;;;;;;;9.97;8.97;;;;;;;8.89;84.48;95087.69;5096280;28;20413;-79
2022/05/04 04:31:25;;;;;;;10.80;8.13;;;;;;;9.50;81.86;95078.63;5096450;28;20476;-78
2022/05/04 04:33:52;;;;;;;9.93;8.87;;;;;;;10.08;81.54;95068.78;5096103;28;20452;-78
2022/05/04 04:36:19;;;;;;;10.63;9.13;;;;;;;10.83;80.89;95076.66;5099594;28;20451;-80
2022/05/04 04:38:46;;;;;;;8.63;7.80;;;;;;;11.54;76.45;95071.56;5096689;28;20458;-81
2022/05/04 04:41:13;;;;;;;18.03;7.47;;;;;;;12.15;73.57;95068.91;5095735;28;20442;-78
2022/05/04 04:43:39;;;;;;;5.30;4.80;;;;;;;12.64;68.79;95065.34;5096128;28;20958;-79
2022/05/04 04:46:08;;;;;;;3.93;3.63;;;;;;;12.91;67.21;95048.84;5096105;28;20486;-78
2022/05/04 04:48:35;;;;;;;4.87;3.90;;;;;;;13.35;64.55;95059.78;5095312;28;20454;-79
2022/05/04 04:51:01;;;;;;;4.30;3.90;;;;;;;13.67;62.27;95069.09;5044222;28;20436;-78
2022/05/04 04:53:29;;;;;;;4.60;4.20;;;;;;;13.79;60.31;95070.56;5095825;28;20433;-78
2022/05/04 04:55:55;;;;;;;4.13;3.73;;;;;;;13.73;60.71;95079.06;5060148;28;20475;-78
2022/05/04 04:58:22;;;;;;;7.03;3.80;;;;;;;13.63;59.73;95076.47;5095589;28;20440;-79
2022/05/04 05:00:49;;;;;;;12.20;6.80;;;;;;;13.22;63.87;95069.78;5095702;28;20433;-79
2022/05/04 05:03:18;;;;;;;8.50;7.53;;;;;;;12.56;64.67;95075.75;5091012;28;20473;-78
2022/05/04 05:05:45;;;;;;;12.03;8.00;;;;;;;12.45;67.55;95075.88;5075472;28;20812;-78
2022/05/04 05:08:13;;;;;;;11.43;8.40;;;;;;;12.70;67.28;95082.38;5078190;28;20458;-78
2022/05/04 05:10:40;;;;;;;12.30;9.13;;;;;;;12.95;66.68;95086.28;5095466;28;20428;-78
2022/05/04 05:13:08;;;;;;;13.13;8.93;;;;;;;12.47;66.78;95094.16;5095603;28;20550;-78
2022/05/04 05:18:23;;;;;;;8.90;7.90;;;;;;;11.91;69.89;95100.81;5093668;28;20479;-78
2022/05/04 05:20:50;;;;;;;14.60;10.23;;;;;;;11.37;71.55;95101.06;5080639;28;20443;-78
2022/05/04 05:23:16;;;;;;;13.10;11.60;;;;;;;10.89;73.30;95098.94;5093544;28;20480;-78
2022/05/04 05:25:43;;;;;;;11.33;8.83;;;;;;;10.53;76.34;95097.56;5094020;28;20456;-78
2022/05/04 05:28:10;;;;;;;16.83;8.73;;;;;;;10.54;75.49;95094.81;5093609;28;20448;-78
2022/05/04 05:30:37;;;;;;;14.53;9.13;;;;;;;10.66;75.42;95097.38;5093745;28;20433;-78
2022/05/04 05:33:04;;;;;;;12.50;8.80;;;;;;;10.78;74.98;95099.00;5093699;28;20447;-77
2022/05/04 05:35:32;;;;;;;12.10;8.77;;;;;;;10.47;75.50;95085.78;5041054;28;20431;-77
2022/05/04 05:37:59;;;;;;;14.10;10.07;;;;;;;10.69;75.99;95095.34;5058080;28;20436;-79
2022/05/04 05:40:26;;;;;;;13.60;9.60;;;;;;;10.90;75.79;95078.78;5093492;28;20981;-78
2022/05/04 05:42:53;;;;;;;10.50;9.20;;;;;;;11.26;73.97;95083.56;5093529;28;20525;-77
2022/05/04 05:45:20;;;;;;;11.70;8.27;;;;;;;11.71;73.43;95083.25;5093209;28;20446;-78
2022/05/04 05:47:47;;;;;;;15.00;8.73;;;;;;;12.12;71.09;95082.31;5093252;28;20440;-78
2022/05/04 05:50:14;;;;;;;10.30;7.73;;;;;;;12.50;69.80;95084.19;5093253;28;20455;-78
2022/05/04 05:52:42;;;;;;;10.30;8.10;;;;;;;13.00;67.57;95098.03;5093503;28;20447;-78
2022/05/04 05:55:10;;;;;;;11.23;7.60;;;;;;;13.74;65.63;95094.75;5093246;28;20455;-78
2022/05/04 05:57:37;;;;;;;7.43;6.60;;;;;;;14.39;63.93;95095.53;5093169;28;20440;-78
2022/05/04 06:00:05;;;;;;;8.70;6.83;;;;;;;15.08;61.51;95088.84;5093142;28;20455;-78
2022/05/04 06:02:33;;;;;;;10.30;7.10;;;;;;;15.56;59.63;95085.69;5040979;28;20447;-78
2022/05/04 06:05:00;;;;;;;7.70;6.97;;;;;;;16.13;58.80;95079.91;5092988;28;20448;-78
2022/05/04 06:07:27;;;;;;;12.23;8.70;;;;;;;16.53;56.12;95072.13;5092828;28;20451;-79
2022/05/04 06:09:55;;;;;;;13.67;8.40;;;;;;;16.86;55.03;95064.25;5092942;28;20456;-79
2022/05/04 06:12:22;;;;;;;6.80;6.13;;;;;;;17.19;53.64;95075.72;5092690;28;20474;-79
2022/05/04 06:14:49;;;;;;;8.70;7.00;;;;;;;17.54;52.97;95077.16;5092676;28;20817;-78
2022/05/04 06:17:16;;;;;;;10.37;7.37;;;;;;;17.81;52.20;95082.13;5093036;28;20446;-79
2022/05/04 06:19:43;;;;;;;8.93;7.13;;;;;;;17.94;50.82;95071.81;5040642;28;20436;-79
2022/05/04 06:22:10;;;;;;;6.80;6.20;;;;;;;17.34;51.50;95072.22;5092905;28;20436;-77
2022/05/04 06:24:37;;;;;;;7.50;6.60;;;;;;;17.15;52.72;95074.38;5092635;28;20484;-79
2022/05/04 06:27:06;;;;;;;25.87;7.27;;;;;;;17.31;51.89;95077.84;5092676;28;20440;-79
2022/05/04 06:35:03;;;;;;;10.40;7.87;;;;;;;16.77;53.83;95075.81;5030112;28;20427;-78
2022/05/04 06:37:30;;;;;;;8.43;7.63;;;;;;;17.07;53.06;95082.34;5030165;28;20453;-78
2022/05/04 06:39:57;;;;;;;10.63;7.83;;;;;;;17.01;52.92;95078.50;5029879;28;20450;-77
2022/05/04 06:42:25;;;;;;;8.77;7.87;;;;;;;16.77;53.35;95079.34;5030115;28;20959;-78
2022/05/04 06:44:52;;;;;;;9.67;8.67;;;;;;;16.89;53.41;95079.84;5030017;28;20486;-78
2022/05/04 06:47:19;;;;;;;8.87;7.53;;;;;;;16.91;53.53;95091.09;5029951;28;20959;-78
2022/05/04 06:49:45;;;;;;;14.20;8.43;;;;;;;16.71;54.68;95083.44;5029893;28;20439;-79
2022/05/04 06:52:12;;;;;;;8.27;7.43;;;;;;;16.81;54.77;95087.78;5029887;28;20447;-78
2022/05/04 06:54:39;;;;;;;11.87;7.63;;;;;;;17.14;52.94;95093.94;4996758;28;20457;-78
2022/05/04 06:57:07;;;;;;;19.43;8.03;;;;;;;16.67;54.99;95090.06;5029875;28;20439;-78
2022/05/04 06:59:35;;;;;;;10.90;7.43;;;;;;;16.62;55.14;95083.56;5029947;28;20580;-78
2022/05/04 07:02:02;;;;;;;10.33;7.70;;;;;;;16.56;56.53;95086.88;5029989;28;20439;-78
2022/05/04 07:04:29;;;;;;;10.70;8.27;;;;;;;16.67;55.90;95087.41;4997113;28;20478;-78
2022/05/04 07:06:56;;;;;;;9.20;7.47;;;;;;;16.72;57.49;95084.25;5028942;28;20454;-77
2022/05/04 07:09:23;;;;;;;8.40;7.60;;;;;;;16.86;56.54;95086.28;5013136;28;20931;-78
2022/05/04 07:11:50;;;;;;;9.47;8.67;;;;;;;16.86;56.91;95086.28;5049224;28;20927;-78
2022/05/04 07:14:17;;;;;;;10.77;7.97;;;;;;;16.95;56.80;95079.16;5092143;28;20938;-78
2022/05/04 07:16:47;;;;;;;8.87;7.70;;;;;;;16.85;56.26;95076.69;5092564;28;20930;-78
2022/05/04 07:19:13;;;;;;;9.30;7.53;;;;;;;17.10;55.96;95072.25;5092308;28;20432;-78
2022/05/04 07:21:40;;;;;;;10.07;8.07;;;;;;;17.47;55.46;95062.94;5092368;28;20467;-78
2022/05/04 07:24:08;;;;;;;12.30;8.10;;;;;;;17.79;54.24;95075.34;5059530;28;20475;-77
2022/05/04 07:26:34;;;;;;;10.40;7.70;;;;;;;18.21;53.71;95070.56;5096616;28;20439;-79
2022/05/04 07:29:01;;;;;;;12.10;8.57;;;;;;;18.53;52.64;95071.41;5096274;28;20934;-77
2022/05/04 07:31:28;;;;;;;17.00;8.80;;;;;;;18.79;51.44;95071.97;5096252;28;20447;-79
2022/05/04 07:33:56;;;;;;;9.57;8.23;;;;;;;19.01;50.80;95074.78;5096135;28;20450;-79
2022/05/04 07:36:23;;;;;;;10.37;7.70;;;;;;;19.34;50.12;95068.22;5095859;28;20443;-78
2022/05/04 07:38:50;;;;;;;20.43;8.93;;;;;;;19.46;49.05;95073.94;5096139;28;20447;-79
2022/05/04 07:43:59;;;;;;;11.23;10.03;;;;;;;19.08;49.16;95073.94;5033337;28;21050;-77
2022/05/04 07:46:27;;;;;;;16.60;10.30;;;;;;;18.38;49.98;95068.66;5016882;28;20442;-79
2022/05/04 07:48:54;;;;;;;13.47;11.53;;;;;;;18.09;53.13;95063.13;5033494;28;20438;-78
2022/05/04 07:51:22;;;;;;;16.87;11.67;;;;;;;17.98;53.52;95060.88;5033433;28;20999;-78
2022/05/04 07:53:50;;;;;;;11.40;9.60;;;;;;;18.06;53.06;95060.81;5033358;28;20446;-78
2022/05/04 07:56:17;;;;;;;14.53;10.30;;;;;;;18.38;51.81;95054.53;5033157;28;20461;-78
2022/05/04 07:58:44;;;;;;;27.20;13.97;;;;;;;18.11;51.37;95059.31;5033198;28;20991;-79
2022/05/04 08:06:37;;;;;;;13.90;12.33;;;;;;;18.61;50.11;95057.25;4993565;28;20425;-78
2022/05/04 08:09:04;;;;;;;14.40;11.77;;;;;;;18.86;50.81;95054.28;4993698;28;20443;-77
2022/05/04 08:11:31;;;;;;;17.43;11.50;;;;;;;19.16;49.74;95063.22;4993000;28;20488;-78
2022/05/04 08:13:58;;;;;;;14.83;12.50;;;;;;;19.45;49.05;95058.97;4993341;28;20467;-78
2022/05/04 08:16:25;;;;;;;15.37;13.77;;;;;;;19.61;47.25;95055.34;4961170;28;20444;-78
2022/05/04 08:18:52;;;;;;;23.93;14.77;;;;;;;19.48;47.55;95058.63;4993444;28;20448;-78
2022/05/04 08:21:19;;;;;;;16.53;13.53;;;;;;;19.69;48.23;95048.13;4954764;28;20442;-78
2022/05/04 08:23:47;;;;;;;20.50;14.03;;;;;;;19.89;46.73;95042.25;5012999;28;20483;-79
2022/05/04 08:26:14;;;;;;;15.60;13.40;;;;;;;20.02;46.06;95050.44;5013059;28;20808;-77
2022/05/04 08:28:41;;;;;;;22.30;14.67;;;;;;;19.93;46.57;95049.69;5012999;28;20451;-78
2022/05/04 08:31:08;;;;;;;17.23;14.33;;;;;;;19.90;48.43;95041.25;5012931;28;20450;-77
2022/05/04 08:33:36;;;;;;;19.60;12.97;;;;;;;19.90;47.74;95049.22;5012316;28;20797;-78
2022/05/04 08:36:03;;;;;;;17.13;13.97;;;;;;;19.77;47.42;95044.56;5012595;28;20440;-79
2022/05/04 08:38:30;;;;;;;13.13;11.20;;;;;;;19.58;44.85;95043.25;5012854;28;20443;-78
2022/05/04 08:40:58;;;;;;;12.83;11.50;;;;;;;19.78;46.45;95039.03;5012689;28;20444;-78
2022/05/04 08:43:25;;;;;;;14.97;12.43;;;;;;;19.89;46.50;95036.94;5036338;28;20436;-78
2022/05/04 08:45:54;;;;;;;16.83;12.83;;;;;;;19.80;47.89;95033.53;5094688;28;20444;-78
2022/05/04 08:48:22;;;;;;;16.03;12.47;;;;;;;19.87;46.03;95041.63;5094614;28;20452;-79
2022/05/04 08:50:50;;;;;;;14.70;11.40;;;;;;;20.05;45.97;95036.75;5094871;28;20440;-78
2022/05/04 08:53:18;;;;;;;15.90;12.13;;;;;;;20.13;45.90;95038.50;5094510;28;20799;-78
2022/05/04 08:55:45;;;;;;;15.17;11.40;;;;;;;20.22;46.52;95038.19;5094650;28;20684;-77
2022/05/04 08:58:13;;;;;;;16.10;11.30;;;;;;;20.41;46.52;95027.00;5094667;28;20943;-78
2022/05/04 09:00:40;;;;;;;15.50;10.47;;;;;;;20.34;44.81;95031.41;5094917;28;20440;-79
2022/05/04 09:03:07;;;;;;;11.77;9.73;;;;;;;20.44;46.15;95027.63;5059078;28;20451;-78
2022/05/04 09:05:40;;;;;;;21.43;10.67;;;;;;;20.32;43.94;95027.25;5094284;28;20479;-78
2022/05/04 09:08:08;;;;;;;8.40;6.63;;;;;;;20.37;39.98;95023.03;5094400;28;20809;-77
2022/05/04 09:10:39;;;;;;;6.97;5.87;;;;;;;20.47;40.93;95020.09;5094162;28;20934;-77
2022/05/04 09:13:06;;;;;;;8.40;6.20;;;;;;;20.64;40.69;95012.69;5094376;28;20468;-79
2022/05/04 09:15:37;;;;;;;6.53;5.93;;;;;;;20.68;39.16;95014.78;5094679;28;20463;-77
2022/05/04 09:18:05;;;;;;;9.30;4.90;;;;;;;20.76;39.09;95016.50;5042396;28;20428;-79
2022/05/04 09:23:31;;;;;;;6.20;5.33;;;;;;;20.87;36.89;95016.03;5051475;28;20574;-78
2022/05/04 09:25:59;;;;;;;4.90;4.40;;;;;;;20.88;37.03;95012.34;5051453;28;20489;-78
2022/05/04 09:28:28;;;;;;;9.07;4.47;;;;;;;20.88;37.07;95008.84;5051705;28;20533;-78
2022/05/04 09:31:00;;;;;;;6.17;4.20;;;;;;;20.76;37.17;94997.84;5051267;28;20496;-78
2022/05/04 09:33:29;;;;;;;8.23;3.80;;;;;;;20.69;38.08;95007.63;5051615;28;20438;-76
2022/05/04 09:35:57;;;;;;;5.20;3.87;;;;;;;20.74;37.99;94999.88;5051419;28;20454;-78
2022/05/04 09:46:45;;;;;;;6.40;4.40;;;;;;;20.36;38.56;94988.56;5050476;28;20471;-78
2022/05/04 09:49:16;;;;;;;6.40;4.27;;;;;;;20.31;39.01;94990.97;5051086;28;20961;-79
2022/05/04 09:51:48;;;;;;;4.87;4.33;;;;;;;20.37;39.83;94983.03;5050992;28;20534;-78
2022/05/04 09:54:22;;;;;;;4.50;3.77;;;;;;;20.32;38.37;94980.13;5051133;28;20457;-78
2022/05/04 09:56:51;;;;;;;5.00;3.47;;;;;;;20.11;40.61;94980.06;5057665;28;20447;-78
2022/05/04 09:59:20;;;;;;;5.10;3.87;;;;;;;20.05;40.04;94983.47;5093488;28;20931;-78
2022/05/04 10:01:50;;;;;;;3.90;3.50;;;;;;;20.01;39.94;94972.38;5093317;28;20440;-77
2022/05/04 10:04:18;;;;;;;4.73;4.13;;;;;;;20.02;40.93;94975.84;5093212;28;20487;-79
2022/05/04 10:06:45;;;;;;;7.43;3.80;;;;;;;19.95;41.94;94961.59;5093455;28;21067;-78
2022/05/04 10:09:12;;;;;;;4.13;3.73;;;;;;;20.09;44.16;94963.44;5093464;28;20853;-76
2022/05/04 10:11:39;;;;;;;4.27;3.87;;;;;;;20.08;43.35;94962.63;5093123;28;20476;-78
2022/05/04 10:14:10;;;;;;;5.80;3.80;;;;;;;20.11;42.29;94964.91;5041144;28;20432;-79
2022/05/04 10:16:42;;;;;;;4.90;4.20;;;;;;;20.08;40.79;94959.13;5058304;28;20439;-78
2022/05/04 10:19:18;;;;;;;5.20;3.37;;;;;;;19.99;40.64;94961.06;5093307;28;20443;-77
2022/05/04 10:21:48;;;;;;;3.80;3.50;;;;;;;20.06;40.89;94955.81;5093031;28;21093;-78
2022/05/04 10:24:19;;;;;;;4.47;4.17;;;;;;;20.14;39.75;94952.22;5093004;28;20487;-78
2022/05/04 10:26:46;;;;;;;4.17;3.87;;;;;;;20.16;40.22;94943.03;5093446;28;20888;-77
2022/05/04 10:32:31;;;;;;;5.43;4.20;;;;;;;20.21;40.53;94943.28;5093024;28;20431;-77
2022/05/04 10:35:15;;;;;;;4.27;3.67;;;;;;;20.28;43.08;94944.19;5092912;28;20531;-78
2022/05/04 10:38:04;;;;;;;5.40;3.67;;;;;;;20.26;41.31;94940.91;4961522;28;20432;-77
2022/05/04 10:40:33;;;;;;;6.60;3.93;;;;;;;20.24;40.88;94932.28;5010648;28;20453;-77
2022/05/04 10:43:02;;;;;;;4.40;3.80;;;;;;;20.32;41.78;94937.47;5010364;28;20447;-80
2022/05/04 10:45:35;;;;;;;4.30;3.90;;;;;;;20.45;41.07;94935.97;5010841;28;20562;-78
2022/05/04 10:48:25;;;;;;;4.90;4.10;;;;;;;20.41;40.56;94928.38;4977505;28;20932;-78
2022/05/04 10:50:57;;;;;;;4.03;3.63;;;;;;;20.33;40.90;94920.47;5010572;28;20829;-78
2022/05/04 10:53:40;;;;;;;5.40;3.47;;;;;;;20.36;40.16;94920.09;5010806;28;20447;-78
2022/05/04 10:56:09;;;;;;;4.37;3.90;;;;;;;20.43;40.19;94922.84;4951869;29;20447;-78
2022/05/04 10:58:39;;;;;;;4.33;3.73;;;;;;;20.39;40.66;94916.22;4952079;29;20856;-77
2022/05/04 11:01:17;;;;;;;4.10;3.70;;;;;;;20.53;40.81;94917.19;4935974;29;20477;-78
2022/05/04 11:04:07;;;;;;;6.23;4.10;;;;;;;20.57;40.19;94916.66;4951967;29;20454;-78
2022/05/04 11:06:37;;;;;;;3.60;3.30;;;;;;;20.68;39.67;94910.78;4876386;29;20454;-77
2022/05/04 11:09:07;;;;;;;4.70;3.50;;;;;;;20.87;39.31;94913.84;4876362;29;20490;-78
2022/05/04 11:11:34;;;;;;;5.37;3.50;;;;;;;21.12;38.52;94908.91;4875822;29;20492;-78
2022/05/04 11:14:01;;;;;;;5.47;3.77;;;;;;;21.27;39.52;94910.47;4881439;29;20457;-79
2022/05/04 11:16:29;;;;;;;4.80;3.10;;;;;;;21.42;38.74;94896.19;4932753;29;20532;-77
2022/05/04 11:18:56;;;;;;;10.50;3.43;;;;;;;21.42;37.80;94891.69;4932595;29;20451;-78
2022/05/04 11:21:23;;;;;;;4.07;3.67;;;;;;;21.44;37.69;94889.63;4932553;29;20455;-78
2022/05/04 11:23:53;;;;;;;4.30;3.90;;;;;;;21.27;42.29;94904.28;4932701;29;20503;-78
2022/05/04 11:26:22;;;;;;;3.23;3.03;;;;;;;21.25;39.22;94898.34;4932694;29;20491;-77
2022/05/04 11:28:50;;;;;;;4.77;3.73;;;;;;;21.26;38.83;94895.47;4884976;29;20435;-76
2022/05/04 11:31:18;;;;;;;4.73;3.80;;;;;;;21.18;38.82;94902.78;4901157;29;20443;-77
2022/05/04 11:33:46;;;;;;;3.87;3.40;;;;;;;20.88;39.82;94902.13;4981993;28;20447;-78
2022/05/04 11:36:13;;;;;;;3.73;3.43;;;;;;;20.86;39.56;94890.84;5010164;28;20446;-78
2022/05/04 11:38:44;;;;;;;6.33;3.50;;;;;;;20.95;39.07;94895.84;5010176;28;20939;-78
2022/05/04 11:41:13;;;;;;;3.63;3.33;;;;;;;20.89;38.31;94896.63;5010101;28;20548;-78
2022/05/04 11:43:40;;;;;;;5.60;3.47;;;;;;;20.77;38.95;94897.31;5043320;28;20471;-77
2022/05/04 11:46:09;;;;;;;4.47;3.70;;;;;;;20.71;40.27;94901.56;5092041;28;20516;-76
2022/05/04 11:48:37;;;;;;;5.13;2.87;;;;;;;20.60;38.20;94886.09;5092239;28;20891;-78
2022/05/04 11:51:05;;;;;;;3.43;3.13;;;;;;;20.60;38.84;94886.09;5092177;28;20468;-78
2022/05/04 11:53:32;;;;;;;3.60;3.30;;;;;;;20.66;39.26;94885.34;5092221;28;20803;-77
2022/05/04 11:56:00;;;;;;;3.83;3.53;;;;;;;20.77;38.51;94881.31;5056521;28;20451;-78
2022/05/04 11:58:28;;;;;;;5.37;3.90;;;;;;;20.74;38.32;94885.19;5091774;28;20493;-79
2022/05/04 12:00:55;;;;;;;3.93;3.53;;;;;;;20.69;39.15;94884.94;5091787;28;20444;-78
2022/05/04 12:03:24;;;;;;;5.00;2.87;;;;;;;20.54;39.27;94886.88;5092200;28;20439;-78
2022/05/04 12:05:52;;;;;;;3.37;3.17;;;;;;;20.41;38.72;94891.06;5091909;28;20483;-78
2022/05/04 12:08:20;;;;;;;5.73;3.30;;;;;;;20.25;40.10;94893.94;5091961;28;20959;-77
2022/05/04 12:10:48;;;;;;;3.90;3.10;;;;;;;20.09;40.88;94894.16;5095653;28;20471;-78
2022/05/04 12:13:16;;;;;;;3.80;3.23;;;;;;;19.29;43.83;94892.31;5095204;28;20605;-78
2022/05/04 12:15:45;;;;;;;4.73;3.70;;;;;;;19.18;44.52;94895.44;5095845;28;20448;-78